sensor_id;sensor_type;location;lat;lon;timestamp;pressure;altitude;pressure_sealevel;temperature
76901;BMP280;65859;43.020;25.096;2024-02-21T00:00:35;100053.72;;;6.31
76901;BMP280;65859;43.020;25.096;2024-02-21T00:03:04;100053.75;;;6.11
76901;BMP280;65859;43.020;25.096;2024-02-21T00:05:31;100052.69;;;6.27
76901;BMP280;65859;43.020;25.096;2024-02-21T00:07:59;100061.66;;;6.26
76901;BMP280;65859;43.020;25.096;2024-02-21T00:10:26;100057.97;;;6.22
76901;BMP280;65859;43.020;25.096;2024-02-21T00:12:52;100056.94;;;6.08
76901;BMP280;65859;43.020;25.096;2024-02-21T00:15:18;100056.44;;;5.95
76901;BMP280;65859;43.020;25.096;2024-02-21T00:17:45;100052.47;;;6.03
76901;BMP280;65859;43.020;25.096;2024-02-21T00:20:12;100052.19;;;6.10
76901;BMP280;65859;43.020;25.096;2024-02-21T00:22:39;100051.44;;;6.04
76901;BMP280;65859;43.020;25.096;2024-02-21T00:25:05;100050.63;;;6.09
76901;BMP280;65859;43.020;25.096;2024-02-21T00:27:32;100048.03;;;6.04
76901;BMP280;65859;43.020;25.096;2024-02-21T00:29:58;100040.63;;;5.95
76901;BMP280;65859;43.020;25.096;2024-02-21T00:32:25;100047.22;;;6.03
76901;BMP280;65859;43.020;25.096;2024-02-21T00:34:51;100034.88;;;5.88
76901;BMP280;65859;43.020;25.096;2024-02-21T00:37:17;100037.78;;;5.82
76901;BMP280;65859;43.020;25.096;2024-02-21T00:39:43;100037.03;;;5.56
76901;BMP280;65859;43.020;25.096;2024-02-21T00:42:10;100033.88;;;5.59
76901;BMP280;65859;43.020;25.096;2024-02-21T00:44:36;100035.69;;;5.79
76901;BMP280;65859;43.020;25.096;2024-02-21T00:47:02;100033.56;;;5.65
76901;BMP280;65859;43.020;25.096;2024-02-21T00:49:28;100029.63;;;5.47
76901;BMP280;65859;43.020;25.096;2024-02-21T00:51:56;100031.50;;;5.52
76901;BMP280;65859;43.020;25.096;2024-02-21T00:54:22;100025.69;;;5.70
76901;BMP280;65859;43.020;25.096;2024-02-21T00:56:49;100027.56;;;5.44
76901;BMP280;65859;43.020;25.096;2024-02-21T00:59:15;100023.09;;;5.35
76901;BMP280;65859;43.020;25.096;2024-02-21T01:01:41;100029.91;;;5.31
76901;BMP280;65859;43.020;25.096;2024-02-21T01:04:09;100019.13;;;5.02
76901;BMP280;65859;43.020;25.096;2024-02-21T01:06:35;100019.38;;;5.05
76901;BMP280;65859;43.020;25.096;2024-02-21T01:09:01;100029.88;;;5.00
76901;BMP280;65859;43.020;25.096;2024-02-21T01:11:28;100023.56;;;4.96
76901;BMP280;65859;43.020;25.096;2024-02-21T01:13:55;100025.25;;;4.39
76901;BMP280;65859;43.020;25.096;2024-02-21T01:16:21;100023.56;;;4.76
76901;BMP280;65859;43.020;25.096;2024-02-21T01:18:47;100011.94;;;4.66
76901;BMP280;65859;43.020;25.096;2024-02-21T01:21:13;100025.03;;;4.51
76901;BMP280;65859;43.020;25.096;2024-02-21T01:23:41;100024.72;;;4.42
76901;BMP280;65859;43.020;25.096;2024-02-21T01:26:07;100024.28;;;4.61
76901;BMP280;65859;43.020;25.096;2024-02-21T01:28:34;100018.16;;;4.45
76901;BMP280;65859;43.020;25.096;2024-02-21T01:31:01;100017.44;;;4.55
76901;BMP280;65859;43.020;25.096;2024-02-21T01:33:28;99998.28;;;4.75
76901;BMP280;65859;43.020;25.096;2024-02-21T01:35:56;100019.63;;;5.04
76901;BMP280;65859;43.020;25.096;2024-02-21T01:38:22;100014.69;;;5.22
76901;BMP280;65859;43.020;25.096;2024-02-21T01:40:49;100000.38;;;4.67
76901;BMP280;65859;43.020;25.096;2024-02-21T01:43:19;100008.03;;;4.79
76901;BMP280;65859;43.020;25.096;2024-02-21T01:45:52;100014.34;;;4.73
76901;BMP280;65859;43.020;25.096;2024-02-21T01:48:19;100001.91;;;4.63
76901;BMP280;65859;43.020;25.096;2024-02-21T01:50:45;100003.84;;;4.88
76901;BMP280;65859;43.020;25.096;2024-02-21T01:53:13;99994.66;;;5.06
76901;BMP280;65859;43.020;25.096;2024-02-21T01:55:46;99990.66;;;4.78
76901;BMP280;65859;43.020;25.096;2024-02-21T01:58:17;99988.06;;;5.04
76901;BMP280;65859;43.020;25.096;2024-02-21T02:00:45;99989.63;;;5.15
76901;BMP280;65859;43.020;25.096;2024-02-21T02:03:12;99985.19;;;5.15
76901;BMP280;65859;43.020;25.096;2024-02-21T02:05:45;99992.03;;;5.01
76901;BMP280;65859;43.020;25.096;2024-02-21T02:08:13;99996.50;;;4.90
76901;BMP280;65859;43.020;25.096;2024-02-21T02:10:41;99982.28;;;5.17
76901;BMP280;65859;43.020;25.096;2024-02-21T02:13:07;99992.31;;;5.10
76901;BMP280;65859;43.020;25.096;2024-02-21T02:15:44;99985.97;;;5.31
76901;BMP280;65859;43.020;25.096;2024-02-21T02:18:11;99958.63;;;5.27
76901;BMP280;65859;43.020;25.096;2024-02-21T02:20:38;99986.50;;;5.54
76901;BMP280;65859;43.020;25.096;2024-02-21T02:23:30;99989.63;;;5.50
76901;BMP280;65859;43.020;25.096;2024-02-21T02:26:01;99998.34;;;5.26
76901;BMP280;65859;43.020;25.096;2024-02-21T02:28:27;99992.03;;;5.21
76901;BMP280;65859;43.020;25.096;2024-02-21T02:30:54;99991.47;;;5.14
76901;BMP280;65859;43.020;25.096;2024-02-21T02:33:20;99988.88;;;5.35
76901;BMP280;65859;43.020;25.096;2024-02-21T02:35:46;99998.59;;;4.98
76901;BMP280;65859;43.020;25.096;2024-02-21T02:38:13;99993.88;;;5.01
76901;BMP280;65859;43.020;25.096;2024-02-21T02:40:40;99996.47;;;4.95
76901;BMP280;65859;43.020;25.096;2024-02-21T02:43:09;99998.06;;;5.07
76901;BMP280;65859;43.020;25.096;2024-02-21T02:45:36;99997.28;;;5.06
76901;BMP280;65859;43.020;25.096;2024-02-21T02:48:02;99997.03;;;5.08
76901;BMP280;65859;43.020;25.096;2024-02-21T02:50:32;99990.47;;;5.05
76901;BMP280;65859;43.020;25.096;2024-02-21T02:52:58;99998.59;;;5.04
76901;BMP280;65859;43.020;25.096;2024-02-21T02:55:24;100000.97;;;5.05
76901;BMP280;65859;43.020;25.096;2024-02-21T02:57:53;99998.84;;;4.97
76901;BMP280;65859;43.020;25.096;2024-02-21T03:00:19;99998.81;;;4.82
76901;BMP280;65859;43.020;25.096;2024-02-21T03:02:48;99994.88;;;4.74
76901;BMP280;65859;43.020;25.096;2024-02-21T03:05:20;100000.69;;;4.91
76901;BMP280;65859;43.020;25.096;2024-02-21T03:07:47;100005.94;;;4.86
76901;BMP280;65859;43.020;25.096;2024-02-21T03:10:14;100004.31;;;4.70
76901;BMP280;65859;43.020;25.096;2024-02-21T03:12:42;99995.41;;;4.76
76901;BMP280;65859;43.020;25.096;2024-02-21T03:15:09;100009.13;;;4.93
76901;BMP280;65859;43.020;25.096;2024-02-21T03:17:35;100004.84;;;4.77
76901;BMP280;65859;43.020;25.096;2024-02-21T03:20:03;100005.09;;;4.70
76901;BMP280;65859;43.020;25.096;2024-02-21T03:22:35;100001.59;;;4.44
76901;BMP280;65859;43.020;25.096;2024-02-21T03:25:01;100006.72;;;4.71
76901;BMP280;65859;43.020;25.096;2024-02-21T03:27:27;100005.03;;;4.35
76901;BMP280;65859;43.020;25.096;2024-02-21T03:29:55;100005.88;;;3.98
76901;BMP280;65859;43.020;25.096;2024-02-21T03:32:21;100005.56;;;4.47
76901;BMP280;65859;43.020;25.096;2024-02-21T03:34:48;100011.38;;;4.59
76901;BMP280;65859;43.020;25.096;2024-02-21T03:37:14;100010.63;;;4.64
76901;BMP280;65859;43.020;25.096;2024-02-21T03:39:40;100012.97;;;4.60
76901;BMP280;65859;43.020;25.096;2024-02-21T03:42:07;100014.75;;;4.39
76901;BMP280;65859;43.020;25.096;2024-02-21T03:44:33;100008.22;;;3.94
76901;BMP280;65859;43.020;25.096;2024-02-21T03:47:00;100017.38;;;3.87
76901;BMP280;65859;43.020;25.096;2024-02-21T03:49:27;100017.78;;;4.21
76901;BMP280;65859;43.020;25.096;2024-02-21T03:51:53;100021.03;;;4.43
76901;BMP280;65859;43.020;25.096;2024-02-21T03:54:20;100008.50;;;4.66
76901;BMP280;65859;43.020;25.096;2024-02-21T03:56:46;100011.97;;;4.71
76901;BMP280;65859;43.020;25.096;2024-02-21T03:59:15;100006.66;;;4.56
76901;BMP280;65859;43.020;25.096;2024-02-21T04:01:43;99995.69;;;4.12
76901;BMP280;65859;43.020;25.096;2024-02-21T04:04:10;99996.88;;;4.36
76901;BMP280;65859;43.020;25.096;2024-02-21T04:06:36;100005.84;;;4.56
76901;BMP280;65859;43.020;25.096;2024-02-21T04:09:02;100004.84;;;4.77
76901;BMP280;65859;43.020;25.096;2024-02-21T04:11:29;100000.84;;;4.59
76901;BMP280;65859;43.020;25.096;2024-02-21T04:13:55;100007.25;;;4.89
76901;BMP280;65859;43.020;25.096;2024-02-21T04:16:22;99995.28;;;4.40
76901;BMP280;65859;43.020;25.096;2024-02-21T04:18:48;100005.88;;;4.66
76901;BMP280;65859;43.020;25.096;2024-02-21T04:21:16;100004.84;;;4.57
76901;BMP280;65859;43.020;25.096;2024-02-21T04:23:43;100012.13;;;4.44
76901;BMP280;65859;43.020;25.096;2024-02-21T04:26:09;100003.50;;;4.54
76901;BMP280;65859;43.020;25.096;2024-02-21T04:28:36;100004.78;;;4.46
76901;BMP280;65859;43.020;25.096;2024-02-21T04:31:02;100007.94;;;4.48
76901;BMP280;65859;43.020;25.096;2024-02-21T04:33:29;100007.94;;;4.59
76901;BMP280;65859;43.020;25.096;2024-02-21T04:35:56;100016.28;;;4.40
76901;BMP280;65859;43.020;25.096;2024-02-21T04:38:22;100014.84;;;4.80
76901;BMP280;65859;43.020;25.096;2024-02-21T04:43:34;100013.97;;;4.39
76901;BMP280;65859;43.020;25.096;2024-02-21T04:46:00;100008.66;;;4.29
76901;BMP280;65859;43.020;25.096;2024-02-21T04:48:26;100017.91;;;4.46
76901;BMP280;65859;43.020;25.096;2024-02-21T04:50:52;100003.25;;;4.66
76901;BMP280;65859;43.020;25.096;2024-02-21T04:53:19;100019.81;;;4.61
76901;BMP280;65859;43.020;25.096;2024-02-21T04:55:45;100016.84;;;4.42
76901;BMP280;65859;43.020;25.096;2024-02-21T04:58:12;100013.91;;;4.34
76901;BMP280;65859;43.020;25.096;2024-02-21T05:00:38;100018.88;;;4.25
76901;BMP280;65859;43.020;25.096;2024-02-21T05:03:04;100026.25;;;4.33
76901;BMP280;65859;43.020;25.096;2024-02-21T05:05:32;100016.81;;;4.37
76901;BMP280;65859;43.020;25.096;2024-02-21T05:07:58;100025.50;;;4.43
76901;BMP280;65859;43.020;25.096;2024-02-21T05:10:24;100019.25;;;4.49
76901;BMP280;65859;43.020;25.096;2024-02-21T05:12:51;100024.47;;;4.44
76901;BMP280;65859;43.020;25.096;2024-02-21T05:15:17;100025.69;;;4.16
76901;BMP280;65859;43.020;25.096;2024-02-21T05:17:43;100032.28;;;3.86
76901;BMP280;65859;43.020;25.096;2024-02-21T05:20:10;100040.88;;;4.14
76901;BMP280;65859;43.020;25.096;2024-02-21T05:22:36;100038.63;;;4.38
76901;BMP280;65859;43.020;25.096;2024-02-21T05:25:03;100045.72;;;4.32
76901;BMP280;65859;43.020;25.096;2024-02-21T05:27:29;100040.38;;;4.22
76901;BMP280;65859;43.020;25.096;2024-02-21T05:29:55;100044.38;;;4.30
76901;BMP280;65859;43.020;25.096;2024-02-21T05:32:22;100045.72;;;4.32
76901;BMP280;65859;43.020;25.096;2024-02-21T05:34:51;100047.25;;;4.28
76901;BMP280;65859;43.020;25.096;2024-02-21T05:37:19;100047.22;;;4.23
76901;BMP280;65859;43.020;25.096;2024-02-21T05:39:45;100053.47;;;4.12
76901;BMP280;65859;43.020;25.096;2024-02-21T05:42:11;100033.50;;;4.11
76901;BMP280;65859;43.020;25.096;2024-02-21T05:44:37;100056.09;;;4.12
76901;BMP280;65859;43.020;25.096;2024-02-21T05:47:04;100048.75;;;4.19
76901;BMP280;65859;43.020;25.096;2024-02-21T05:49:30;100057.06;;;3.95
76901;BMP280;65859;43.020;25.096;2024-02-21T05:51:56;100060.88;;;4.25
76901;BMP280;65859;43.020;25.096;2024-02-21T05:54:23;100070.31;;;4.21
76901;BMP280;65859;43.020;25.096;2024-02-21T05:56:49;100065.88;;;4.16
76901;BMP280;65859;43.020;25.096;2024-02-21T05:59:16;100064.34;;;4.31
76901;BMP280;65859;43.020;25.096;2024-02-21T06:01:42;100075.66;;;4.31
76901;BMP280;65859;43.020;25.096;2024-02-21T06:04:08;100072.44;;;4.24
76901;BMP280;65859;43.020;25.096;2024-02-21T06:06:34;100077.94;;;4.17
76901;BMP280;65859;43.020;25.096;2024-02-21T06:09:02;100077.72;;;4.29
76901;BMP280;65859;43.020;25.096;2024-02-21T06:11:29;100083.56;;;4.36
76901;BMP280;65859;43.020;25.096;2024-02-21T06:13:55;100078.44;;;4.67
76901;BMP280;65859;43.020;25.096;2024-02-21T06:16:22;100076.59;;;4.78
76901;BMP280;65859;43.020;25.096;2024-02-21T06:18:48;100078.53;;;4.97
76901;BMP280;65859;43.020;25.096;2024-02-21T06:21:14;100086.34;;;4.72
76901;BMP280;65859;43.020;25.096;2024-02-21T06:23:42;100087.44;;;4.76
76901;BMP280;65859;43.020;25.096;2024-02-21T06:26:08;100092.28;;;4.52
76901;BMP280;65859;43.020;25.096;2024-02-21T06:28:35;100094.47;;;4.65
76901;BMP280;65859;43.020;25.096;2024-02-21T06:31:02;100093.28;;;4.93
76901;BMP280;65859;43.020;25.096;2024-02-21T06:33:28;100085.66;;;5.17
76901;BMP280;65859;43.020;25.096;2024-02-21T06:35:55;100085.94;;;5.21
76901;BMP280;65859;43.020;25.096;2024-02-21T06:38:21;100091.78;;;5.43
76901;BMP280;65859;43.020;25.096;2024-02-21T06:40:48;100092.56;;;5.34
76901;BMP280;65859;43.020;25.096;2024-02-21T06:43:18;100097.03;;;5.43
76901;BMP280;65859;43.020;25.096;2024-02-21T06:45:45;100097.81;;;5.69
76901;BMP280;65859;43.020;25.096;2024-02-21T06:48:13;100094.94;;;5.45
76901;BMP280;65859;43.020;25.096;2024-02-21T06:50:40;100088.06;;;5.65
76901;BMP280;65859;43.020;25.096;2024-02-21T06:53:06;100085.69;;;5.84
76901;BMP280;65859;43.020;25.096;2024-02-21T06:55:33;100090.13;;;6.09
76901;BMP280;65859;43.020;25.096;2024-02-21T06:57:59;100089.09;;;6.15
76901;BMP280;65859;43.020;25.096;2024-02-21T07:00:25;100081.63;;;6.97
76901;BMP280;65859;43.020;25.096;2024-02-21T07:02:52;100089.66;;;7.55
76901;BMP280;65859;43.020;25.096;2024-02-21T07:05:18;100090.34;;;7.61
76901;BMP280;65859;43.020;25.096;2024-02-21T07:07:45;100091.75;;;7.58
76901;BMP280;65859;43.020;25.096;2024-02-21T07:10:11;100085.06;;;6.92
76901;BMP280;65859;43.020;25.096;2024-02-21T07:12:39;100077.66;;;6.99
76901;BMP280;65859;43.020;25.096;2024-02-21T07:15:08;100080.84;;;7.30
76901;BMP280;65859;43.020;25.096;2024-02-21T07:17:34;100077.66;;;6.94
76901;BMP280;65859;43.020;25.096;2024-02-21T07:20:00;100087.19;;;6.90
76901;BMP280;65859;43.020;25.096;2024-02-21T07:22:27;100085.56;;;6.99
76901;BMP280;65859;43.020;25.096;2024-02-21T07:24:53;100086.28;;;7.44
76901;BMP280;65859;43.020;25.096;2024-02-21T07:27:20;100083.84;;;7.53
76901;BMP280;65859;43.020;25.096;2024-02-21T07:29:46;100087.06;;;8.03
76901;BMP280;65859;43.020;25.096;2024-02-21T07:32:14;100079.75;;;8.19
76901;BMP280;65859;43.020;25.096;2024-02-21T07:34:41;100084.03;;;8.15
76901;BMP280;65859;43.020;25.096;2024-02-21T07:37:07;100092.63;;;8.87
76901;BMP280;65859;43.020;25.096;2024-02-21T07:39:36;100086.91;;;9.45
76901;BMP280;65859;43.020;25.096;2024-02-21T07:42:06;100081.00;;;10.22
76901;BMP280;65859;43.020;25.096;2024-02-21T07:44:32;100091.09;;;9.65
76901;BMP280;65859;43.020;25.096;2024-02-21T07:47:00;100093.75;;;10.47
76901;BMP280;65859;43.020;25.096;2024-02-21T07:49:26;100098.16;;;10.52
76901;BMP280;65859;43.020;25.096;2024-02-21T07:51:53;100077.94;;;10.29
76901;BMP280;65859;43.020;25.096;2024-02-21T07:54:19;100083.28;;;10.01
76901;BMP280;65859;43.020;25.096;2024-02-21T07:56:46;100087.78;;;11.31
76901;BMP280;65859;43.020;25.096;2024-02-21T07:59:13;100084.19;;;11.27
76901;BMP280;65859;43.020;25.096;2024-02-21T08:01:40;100075.63;;;11.08
76901;BMP280;65859;43.020;25.096;2024-02-21T08:04:06;100074.16;;;10.57
76901;BMP280;65859;43.020;25.096;2024-02-21T08:06:32;100074.19;;;10.66
76901;BMP280;65859;43.020;25.096;2024-02-21T08:08:59;100070.56;;;10.25
76901;BMP280;65859;43.020;25.096;2024-02-21T08:11:26;100078.69;;;10.43
76901;BMP280;65859;43.020;25.096;2024-02-21T08:13:52;100081.72;;;10.64
76901;BMP280;65859;43.020;25.096;2024-02-21T08:16:20;100064.81;;;10.82
76901;BMP280;65859;43.020;25.096;2024-02-21T08:18:46;100074.56;;;11.80
76901;BMP280;65859;43.020;25.096;2024-02-21T08:21:12;100072.31;;;11.64
76901;BMP280;65859;43.020;25.096;2024-02-21T08:23:39;100086.66;;;11.95
76901;BMP280;65859;43.020;25.096;2024-02-21T08:26:05;100064.72;;;11.80
76901;BMP280;65859;43.020;25.096;2024-02-21T08:28:32;100089.78;;;13.18
76901;BMP280;65859;43.020;25.096;2024-02-21T08:30:58;100087.66;;;13.49
76901;BMP280;65859;43.020;25.096;2024-02-21T08:33:25;100082.97;;;14.26
76901;BMP280;65859;43.020;25.096;2024-02-21T08:35:52;100077.31;;;14.94
76901;BMP280;65859;43.020;25.096;2024-02-21T08:38:18;100077.19;;;12.63
76901;BMP280;65859;43.020;25.096;2024-02-21T08:40:44;100084.03;;;14.04
76901;BMP280;65859;43.020;25.096;2024-02-21T08:43:11;100073.28;;;13.33
76901;BMP280;65859;43.020;25.096;2024-02-21T08:45:37;100073.66;;;13.52
76901;BMP280;65859;43.020;25.096;2024-02-21T08:48:05;100085.50;;;14.02
76901;BMP280;65859;43.020;25.096;2024-02-21T08:50:32;100078.16;;;14.53
76901;BMP280;65859;43.020;25.096;2024-02-21T08:52:58;100090.50;;;15.60
76901;BMP280;65859;43.020;25.096;2024-02-21T08:55:24;100092.94;;;15.16
76901;BMP280;65859;43.020;25.096;2024-02-21T08:57:51;100095.78;;;16.09
76901;BMP280;65859;43.020;25.096;2024-02-21T09:00:17;100078.69;;;15.37
76901;BMP280;65859;43.020;25.096;2024-02-21T09:02:43;100094.53;;;17.22
76901;BMP280;65859;43.020;25.096;2024-02-21T09:05:10;100092.94;;;18.07
76901;BMP280;65859;43.020;25.096;2024-02-21T09:07:36;100093.94;;;17.63
76901;BMP280;65859;43.020;25.096;2024-02-21T09:10:03;100091.41;;;18.48
76901;BMP280;65859;43.020;25.096;2024-02-21T09:12:29;100087.84;;;18.63
76901;BMP280;65859;43.020;25.096;2024-02-21T09:14:56;100094.50;;;19.45
76901;BMP280;65859;43.020;25.096;2024-02-21T09:17:22;100104.25;;;20.13
76901;BMP280;65859;43.020;25.096;2024-02-21T09:19:51;100117.31;;;20.96
76901;BMP280;65859;43.020;25.096;2024-02-21T09:22:18;100102.69;;;21.00
76901;BMP280;65859;43.020;25.096;2024-02-21T09:24:44;100054.53;;;18.06
76901;BMP280;65859;43.020;25.096;2024-02-21T09:27:11;100056.28;;;15.29
76901;BMP280;65859;43.020;25.096;2024-02-21T09:29:37;100057.75;;;14.15
76901;BMP280;65859;43.020;25.096;2024-02-21T09:32:05;100052.53;;;14.18
76901;BMP280;65859;43.020;25.096;2024-02-21T09:34:31;100050.19;;;14.38
76901;BMP280;65859;43.020;25.096;2024-02-21T09:36:58;100058.50;;;14.36
76901;BMP280;65859;43.020;25.096;2024-02-21T09:39:24;100055.47;;;14.26
76901;BMP280;65859;43.020;25.096;2024-02-21T09:41:56;100054.94;;;13.61
76901;BMP280;65859;43.020;25.096;2024-02-21T09:44:25;100056.09;;;13.81
76901;BMP280;65859;43.020;25.096;2024-02-21T09:49:34;100050.31;;;13.79
76901;BMP280;65859;43.020;25.096;2024-02-21T09:52:04;100044.78;;;13.54
76901;BMP280;65859;43.020;25.096;2024-02-21T09:54:34;100049.41;;;13.96
76901;BMP280;65859;43.020;25.096;2024-02-21T09:57:01;100046.16;;;14.32
76901;BMP280;65859;43.020;25.096;2024-02-21T09:59:32;100047.41;;;14.13
76901;BMP280;65859;43.020;25.096;2024-02-21T10:01:59;100045.22;;;14.15
76901;BMP280;65859;43.020;25.096;2024-02-21T10:04:29;100038.81;;;14.62
76901;BMP280;65859;43.020;25.096;2024-02-21T10:06:55;100036.78;;;14.26
76901;BMP280;65859;43.020;25.096;2024-02-21T10:09:26;100036.41;;;14.81
76901;BMP280;65859;43.020;25.096;2024-02-21T10:12:14;100031.88;;;14.94
76901;BMP280;65859;43.020;25.096;2024-02-21T10:14:43;100031.72;;;14.78
76901;BMP280;65859;43.020;25.096;2024-02-21T10:17:16;100033.34;;;15.03
76901;BMP280;65859;43.020;25.096;2024-02-21T10:19:44;100030.97;;;15.63
76901;BMP280;65859;43.020;25.096;2024-02-21T10:22:11;100031.13;;;15.95
76901;BMP280;65859;43.020;25.096;2024-02-21T10:24:38;100034.13;;;15.28
76901;BMP280;65859;43.020;25.096;2024-02-21T10:27:07;100027.09;;;16.44
76901;BMP280;65859;43.020;25.096;2024-02-21T10:29:35;100017.13;;;16.89
76901;BMP280;65859;43.020;25.096;2024-02-21T10:32:19;100006.63;;;16.36
76901;BMP280;65859;43.020;25.096;2024-02-21T10:34:46;99996.09;;;15.47
76901;BMP280;65859;43.020;25.096;2024-02-21T10:37:17;100032.09;;;16.30
76901;BMP280;65859;43.020;25.096;2024-02-21T10:39:44;99958.97;;;15.46
76901;BMP280;65859;43.020;25.096;2024-02-21T10:42:15;99981.19;;;15.10
76901;BMP280;65859;43.020;25.096;2024-02-21T10:44:44;99973.06;;;14.94
76901;BMP280;65859;43.020;25.096;2024-02-21T10:47:12;99969.16;;;14.79
76901;BMP280;65859;43.020;25.096;2024-02-21T10:49:40;100035.41;;;17.69
76901;BMP280;65859;43.020;25.096;2024-02-21T10:52:55;100027.81;;;21.84
76901;BMP280;65859;43.020;25.096;2024-02-21T10:55:38;99973.41;;;21.96
76901;BMP280;65859;43.020;25.096;2024-02-21T10:58:06;100002.38;;;22.46
76901;BMP280;65859;43.020;25.096;2024-02-21T11:00:34;99947.44;;;18.50
76901;BMP280;65859;43.020;25.096;2024-02-21T11:03:01;99953.47;;;15.95
76901;BMP280;65859;43.020;25.096;2024-02-21T11:05:27;100032.25;;;18.94
76901;BMP280;65859;43.020;25.096;2024-02-21T11:07:54;99967.56;;;21.66
76901;BMP280;65859;43.020;25.096;2024-02-21T11:10:25;99947.06;;;17.45
76901;BMP280;65859;43.020;25.096;2024-02-21T11:13:10;100024.97;;;21.27
76901;BMP280;65859;43.020;25.096;2024-02-21T11:15:37;100019.28;;;27.26
76901;BMP280;65859;43.020;25.096;2024-02-21T11:18:03;100022.78;;;26.51
76901;BMP280;65859;43.020;25.096;2024-02-21T11:20:37;100017.88;;;27.86
76901;BMP280;65859;43.020;25.096;2024-02-21T11:23:04;99991.81;;;22.98
76901;BMP280;65859;43.020;25.096;2024-02-21T11:25:31;99964.34;;;23.03
76901;BMP280;65859;43.020;25.096;2024-02-21T11:28:03;99940.88;;;20.56
76901;BMP280;65859;43.020;25.096;2024-02-21T11:30:36;99916.13;;;16.30
76901;BMP280;65859;43.020;25.096;2024-02-21T11:33:06;99949.50;;;16.32
76901;BMP280;65859;43.020;25.096;2024-02-21T11:35:33;99921.31;;;16.70
76901;BMP280;65859;43.020;25.096;2024-02-21T11:38:12;99931.69;;;16.40
76901;BMP280;65859;43.020;25.096;2024-02-21T11:40:45;99916.66;;;18.21
76901;BMP280;65859;43.020;25.096;2024-02-21T11:43:11;99913.03;;;17.68
76901;BMP280;65859;43.020;25.096;2024-02-21T11:45:38;99901.63;;;15.87
76901;BMP280;65859;43.020;25.096;2024-02-21T11:48:08;99901.97;;;15.29
76901;BMP280;65859;43.020;25.096;2024-02-21T11:50:35;99902.66;;;15.26
76901;BMP280;65859;43.020;25.096;2024-02-21T11:53:06;99896.66;;;14.81
76901;BMP280;65859;43.020;25.096;2024-02-21T11:55:33;99890.66;;;14.59
76901;BMP280;65859;43.020;25.096;2024-02-21T11:58:00;99886.84;;;14.36
76901;BMP280;65859;43.020;25.096;2024-02-21T12:00:26;99882.81;;;13.84
76901;BMP280;65859;43.020;25.096;2024-02-21T12:02:53;99886.66;;;13.54
76901;BMP280;65859;43.020;25.096;2024-02-21T12:05:21;99884.72;;;13.63
76901;BMP280;65859;43.020;25.096;2024-02-21T12:07:48;99882.03;;;13.63
76901;BMP280;65859;43.020;25.096;2024-02-21T12:10:14;99887.06;;;13.65
76901;BMP280;65859;43.020;25.096;2024-02-21T12:12:41;99879.81;;;13.53
76901;BMP280;65859;43.020;25.096;2024-02-21T12:15:08;99873.41;;;13.45
76901;BMP280;65859;43.020;25.096;2024-02-21T12:17:40;99875.28;;;13.45
76901;BMP280;65859;43.020;25.096;2024-02-21T12:20:08;99877.50;;;13.43
76901;BMP280;65859;43.020;25.096;2024-02-21T12:22:43;99865.00;;;13.35
76901;BMP280;65859;43.020;25.096;2024-02-21T12:25:19;99863.38;;;13.21
76901;BMP280;65859;43.020;25.096;2024-02-21T12:27:47;99859.84;;;13.38
76901;BMP280;65859;43.020;25.096;2024-02-21T12:30:15;99856.09;;;13.30
76901;BMP280;65859;43.020;25.096;2024-02-21T12:32:42;99857.72;;;13.23
76901;BMP280;65859;43.020;25.096;2024-02-21T12:35:08;99855.59;;;13.08
76901;BMP280;65859;43.020;25.096;2024-02-21T12:37:34;99846.28;;;13.22
76901;BMP280;65859;43.020;25.096;2024-02-21T12:40:01;99850.47;;;13.32
76901;BMP280;65859;43.020;25.096;2024-02-21T12:42:33;99852.38;;;13.23
76901;BMP280;65859;43.020;25.096;2024-02-21T12:45:00;99850.56;;;13.15
76901;BMP280;65859;43.020;25.096;2024-02-21T12:47:26;99847.75;;;13.20
76901;BMP280;65859;43.020;25.096;2024-02-21T12:49:53;99845.72;;;13.08
76901;BMP280;65859;43.020;25.096;2024-02-21T12:52:19;99833.03;;;13.14
76901;BMP280;65859;43.020;25.096;2024-02-21T12:54:46;99834.31;;;12.87
76901;BMP280;65859;43.020;25.096;2024-02-21T12:57:13;99845.75;;;12.87
76901;BMP280;65859;43.020;25.096;2024-02-21T12:59:40;99835.84;;;13.09
76901;BMP280;65859;43.020;25.096;2024-02-21T13:02:07;99835.25;;;13.32
76901;BMP280;65859;43.020;25.096;2024-02-21T13:04:34;99835.88;;;13.50
76901;BMP280;65859;43.020;25.096;2024-02-21T13:07:00;99832.69;;;13.57
76901;BMP280;65859;43.020;25.096;2024-02-21T13:09:27;99832.16;;;13.97
76901;BMP280;65859;43.020;25.096;2024-02-21T13:11:53;99828.69;;;13.84
76901;BMP280;65859;43.020;25.096;2024-02-21T13:14:20;99828.63;;;14.17
76901;BMP280;65859;43.020;25.096;2024-02-21T13:16:47;99824.44;;;14.40
76901;BMP280;65859;43.020;25.096;2024-02-21T13:19:13;99817.66;;;14.31
76901;BMP280;65859;43.020;25.096;2024-02-21T13:21:43;99816.28;;;14.37
76901;BMP280;65859;43.020;25.096;2024-02-21T13:24:09;99813.38;;;14.17
76901;BMP280;65859;43.020;25.096;2024-02-21T13:26:35;99808.81;;;13.94
76901;BMP280;65859;43.020;25.096;2024-02-21T13:29:03;99811.81;;;13.59
76901;BMP280;65859;43.020;25.096;2024-02-21T13:31:30;99808.44;;;13.50
76901;BMP280;65859;43.020;25.096;2024-02-21T13:33:56;99814.34;;;13.55
76901;BMP280;65859;43.020;25.096;2024-02-21T13:36:23;99813.25;;;13.56
76901;BMP280;65859;43.020;25.096;2024-02-21T13:38:49;99812.09;;;13.78
76901;BMP280;65859;43.020;25.096;2024-02-21T13:41:17;99805.78;;;13.83
76901;BMP280;65859;43.020;25.096;2024-02-21T13:43:43;99804.66;;;13.72
76901;BMP280;65859;43.020;25.096;2024-02-21T13:46:12;99795.06;;;13.71
76901;BMP280;65859;43.020;25.096;2024-02-21T13:48:38;99796.25;;;13.61
76901;BMP280;65859;43.020;25.096;2024-02-21T13:51:05;99791.56;;;13.46
76901;BMP280;65859;43.020;25.096;2024-02-21T13:53:31;99788.16;;;13.37
76901;BMP280;65859;43.020;25.096;2024-02-21T13:55:58;99785.91;;;13.26
76901;BMP280;65859;43.020;25.096;2024-02-21T13:58:24;99777.84;;;13.14
76901;BMP280;65859;43.020;25.096;2024-02-21T14:00:52;99791.56;;;13.25